createdAt,value
2023-09-19T00:00:50.458Z,2.22
2023-09-19T00:03:17.719Z,4.55
2023-09-19T00:05:46.687Z,4.22
2023-09-19T00:08:17.756Z,0.63
2023-09-19T00:10:45.387Z,1.00
2023-09-19T00:13:16.707Z,2.65
2023-09-19T00:15:52.009Z,1.33
2023-09-19T00:18:22.547Z,3.65
2023-09-19T00:20:51.365Z,2.78
2023-09-19T00:23:21.042Z,4.20
2023-09-19T00:25:48.393Z,0.80
2023-09-19T00:28:17.135Z,1.52
2023-09-19T00:30:45.095Z,0.95
2023-09-19T00:33:18.087Z,5.25
2023-09-19T00:35:52.045Z,0.80
2023-09-19T00:38:22.448Z,2.42
2023-09-19T00:40:50.428Z,3.80
2023-09-19T00:43:18.254Z,1.42
2023-09-19T00:45:49.635Z,3.63
2023-09-19T00:48:17.355Z,1.30
2023-09-19T00:50:49.237Z,1.67
2023-09-19T00:53:21.430Z,2.75
2023-09-19T00:55:48.797Z,3.95
2023-09-19T00:58:19.803Z,1.40
2023-09-19T01:00:49.099Z,2.92
2023-09-19T01:03:16.243Z,4.15
2023-09-19T01:05:43.971Z,3.22
2023-09-19T01:08:13.004Z,3.30
2023-09-19T01:10:48.369Z,3.63
2023-09-19T01:13:25.022Z,4.25
2023-09-19T01:16:01.155Z,2.67
2023-09-19T01:18:45.368Z,3.05
2023-09-19T01:21:30.514Z,1.70
2023-09-19T01:24:37.742Z,1.20
2023-09-19T01:27:46.111Z,1.15
2023-09-19T01:30:19.181Z,2.10
2023-09-19T01:32:47.796Z,2.55
2023-09-19T01:35:14.997Z,1.67
2023-09-19T01:37:45.353Z,3.47
2023-09-19T01:40:19.327Z,3.72
2023-09-19T01:43:35.344Z,2.42
2023-09-19T01:46:17.524Z,5.50
2023-09-19T01:49:22.165Z,2.97
2023-09-19T01:52:17.928Z,3.33
2023-09-19T01:54:52.483Z,3.28
2023-09-19T01:57:33.836Z,2.75
2023-09-19T02:00:08.527Z,4.53
2023-09-19T02:02:39.387Z,3.95
2023-09-19T02:05:06.482Z,2.58
2023-09-19T02:07:33.650Z,2.55
2023-09-19T02:10:07.329Z,4.93
2023-09-19T02:12:34.652Z,1.85
2023-09-19T02:15:01.759Z,3.25
2023-09-19T02:17:28.750Z,2.13
2023-09-19T02:19:56.587Z,5.53
2023-09-19T02:22:26.077Z,3.33
2023-09-19T02:24:54.238Z,3.75
2023-09-19T02:27:21.361Z,3.10
2023-09-19T02:29:48.251Z,3.53
2023-09-19T02:32:15.266Z,1.90
2023-09-19T02:34:43.309Z,2.47
2023-09-19T02:37:10.255Z,1.90
2023-09-19T02:39:37.240Z,1.48
2023-09-19T02:42:05.529Z,2.28
2023-09-19T02:44:32.825Z,1.77
2023-09-19T02:47:00.235Z,2.65
2023-09-19T02:49:27.271Z,3.47
2023-09-19T02:51:54.322Z,4.13
2023-09-19T02:54:21.592Z,3.92
2023-09-19T02:56:48.668Z,1.85
2023-09-19T02:59:15.973Z,3.00
2023-09-19T03:01:45.138Z,2.20
2023-09-19T03:04:13.053Z,3.88
2023-09-19T03:06:40.509Z,2.17
2023-09-19T03:09:13.706Z,2.00
2023-09-19T03:11:41.733Z,2.97
2023-09-19T03:14:08.671Z,1.98
2023-09-19T03:16:35.599Z,2.75
2023-09-19T03:19:02.606Z,2.72
2023-09-19T03:21:30.964Z,1.73
2023-09-19T03:23:58.220Z,1.75
2023-09-19T03:26:28.245Z,1.73
2023-09-19T03:28:55.586Z,3.75
2023-09-19T03:31:22.570Z,3.67
2023-09-19T03:33:49.579Z,1.85
2023-09-19T03:36:16.581Z,1.92
2023-09-19T03:38:43.907Z,1.42
2023-09-19T03:41:10.831Z,1.70
2023-09-19T03:43:37.697Z,2.95
2023-09-19T03:46:08.991Z,2.97
2023-09-19T03:48:35.930Z,1.95
2023-09-19T03:51:03.627Z,3.90
2023-09-19T03:53:30.524Z,2.70
2023-09-19T03:55:57.429Z,4.43
2023-09-19T03:58:24.410Z,4.38
2023-09-19T04:00:51.764Z,3.92
2023-09-19T04:03:22.429Z,2.05
2023-09-19T04:05:49.498Z,4.45
2023-09-19T04:08:16.594Z,2.33
2023-09-19T04:10:45.300Z,3.95
2023-09-19T04:13:16.881Z,2.88
2023-09-19T04:15:43.871Z,3.95
2023-09-19T04:18:10.871Z,2.22
2023-09-19T04:20:37.837Z,1.48
2023-09-19T04:23:06.944Z,1.98
2023-09-19T04:25:33.938Z,3.25
2023-09-19T04:28:00.885Z,2.13
2023-09-19T04:30:28.396Z,3.33
2023-09-19T04:32:55.289Z,2.55
2023-09-19T04:35:22.378Z,3.25
2023-09-19T04:37:49.588Z,4.95
2023-09-19T04:40:19.314Z,2.30
2023-09-19T04:42:47.434Z,3.13
2023-09-19T04:45:14.735Z,5.55
2023-09-19T04:47:41.622Z,3.17
2023-09-19T04:50:13.414Z,2.45
2023-09-19T04:52:46.136Z,2.30
2023-09-19T04:55:18.408Z,2.30
2023-09-19T04:57:52.448Z,3.78
2023-09-19T05:00:21.121Z,5.10
2023-09-19T05:02:51.348Z,5.95
2023-09-19T05:05:19.178Z,6.45
2023-09-19T05:07:47.139Z,2.80
2023-09-19T05:10:14.854Z,5.13
2023-09-19T05:12:42.444Z,4.07
2023-09-19T05:15:10.050Z,3.47
2023-09-19T05:17:37.612Z,3.22
2023-09-19T05:20:08.002Z,2.60
2023-09-19T05:22:35.645Z,4.35
2023-09-19T05:25:05.958Z,5.80
2023-09-19T05:27:32.829Z,5.22
2023-09-19T05:29:59.693Z,3.15
2023-09-19T05:32:27.281Z,2.83
2023-09-19T05:34:57.901Z,3.05
2023-09-19T05:37:27.962Z,2.35
2023-09-19T05:39:58.857Z,3.90
2023-09-19T05:42:25.885Z,5.45
2023-09-19T05:44:52.843Z,3.47
2023-09-19T05:47:20.436Z,2.55
2023-09-19T05:49:49.847Z,4.00
2023-09-19T05:52:18.131Z,6.05
2023-09-19T05:54:45.008Z,3.95
2023-09-19T05:57:13.703Z,4.90
2023-09-19T05:59:41.557Z,3.08
2023-09-19T06:02:08.651Z,6.07
2023-09-19T06:04:35.762Z,4.20
2023-09-19T06:07:05.567Z,5.90
2023-09-19T06:09:33.459Z,2.88
2023-09-19T06:12:04.770Z,3.58
2023-09-19T06:14:32.162Z,3.88
2023-09-19T06:16:59.098Z,3.33
2023-09-19T06:19:27.488Z,5.55
2023-09-19T06:21:55.449Z,9.18
2023-09-19T06:24:22.579Z,4.38
2023-09-19T06:26:50.904Z,3.63
2023-09-19T06:29:17.864Z,4.38
2023-09-19T06:31:46.003Z,6.95
2023-09-19T06:34:13.106Z,5.88
2023-09-19T06:36:39.995Z,8.43
2023-09-19T06:39:07.874Z,6.75
2023-09-19T06:41:34.814Z,6.40
2023-09-19T06:44:02.450Z,5.60
2023-09-19T06:46:34.278Z,7.88
2023-09-19T06:49:01.276Z,3.95
2023-09-19T06:51:28.333Z,5.25
2023-09-19T06:53:55.949Z,5.85
2023-09-19T06:56:26.103Z,3.47
2023-09-19T06:58:53.057Z,6.63
2023-09-19T07:01:20.463Z,5.60
2023-09-19T07:03:47.580Z,8.48
2023-09-19T07:06:14.629Z,7.63
2023-09-19T07:08:41.549Z,6.20
2023-09-19T07:11:08.554Z,9.10
2023-09-19T07:13:37.111Z,7.95
2023-09-19T07:16:04.236Z,7.20
2023-09-19T07:18:31.630Z,5.88
2023-09-19T07:21:02.605Z,5.53
2023-09-19T07:23:31.401Z,7.15
2023-09-19T07:26:00.240Z,7.75
2023-09-19T07:28:27.257Z,5.80
2023-09-19T07:30:54.088Z,5.97
2023-09-19T07:33:21.104Z,7.25
2023-09-19T07:35:48.757Z,6.78
2023-09-19T07:38:16.098Z,7.90
2023-09-19T07:40:43.515Z,8.95
2023-09-19T07:43:10.763Z,5.93
2023-09-19T07:45:37.945Z,8.43
2023-09-19T07:48:14.996Z,6.07
2023-09-19T07:50:44.926Z,5.93
2023-09-19T07:53:14.794Z,5.18
2023-09-19T07:55:42.540Z,6.22
2023-09-19T07:58:09.850Z,5.88
2023-09-19T08:00:36.724Z,4.93
2023-09-19T08:03:15.835Z,5.03
2023-09-19T08:05:45.299Z,4.30
2023-09-19T08:08:14.928Z,4.40
2023-09-19T08:10:43.818Z,7.53
2023-09-19T08:13:14.820Z,5.50
2023-09-19T08:15:45.965Z,6.15
2023-09-19T08:18:13.547Z,4.35
2023-09-19T08:20:43.724Z,6.90
2023-09-19T08:23:10.645Z,6.00
2023-09-19T08:25:39.695Z,5.85
2023-09-19T08:28:10.031Z,3.83
2023-09-19T08:30:41.867Z,6.72
2023-09-19T08:33:09.143Z,5.20
2023-09-19T08:35:36.625Z,5.60
2023-09-19T08:38:05.760Z,3.65
2023-09-19T08:40:35.168Z,4.03
2023-09-19T08:43:02.054Z,5.68
2023-09-19T08:45:30.114Z,6.03
2023-09-19T08:48:18.506Z,5.10
2023-09-19T08:50:59.414Z,2.50
2023-09-19T08:54:00.766Z,4.47
2023-09-19T08:56:28.138Z,4.75
2023-09-19T08:59:04.484Z,6.93
2023-09-19T09:01:33.957Z,5.43
2023-09-19T09:04:03.354Z,3.67
2023-09-19T09:06:31.019Z,6.13
2023-09-19T09:08:58.169Z,3.40
2023-09-19T09:11:26.360Z,3.45
2023-09-19T09:13:53.454Z,3.47
2023-09-19T09:16:20.976Z,3.05
2023-09-19T09:18:54.743Z,7.60
2023-09-19T09:21:23.379Z,5.85
2023-09-19T09:23:55.101Z,5.53
2023-09-19T09:26:48.776Z,3.67
2023-09-19T09:29:20.246Z,4.75
2023-09-19T09:31:49.720Z,3.40
2023-09-19T09:34:17.426Z,4.03
2023-09-19T09:36:49.593Z,4.80
2023-09-19T09:39:20.309Z,2.88
2023-09-19T09:41:47.382Z,4.90
2023-09-19T09:44:19.346Z,3.70
2023-09-19T09:46:56.389Z,3.90
2023-09-19T09:49:34.033Z,1.95
2023-09-19T09:52:12.257Z,3.15
2023-09-19T09:54:39.940Z,2.53
2023-09-19T09:57:25.273Z,2.97
2023-09-19T10:00:19.469Z,2.67
2023-09-19T10:02:48.386Z,3.05
2023-09-19T10:05:30.164Z,5.72
2023-09-19T10:08:02.364Z,5.20
2023-09-19T10:10:55.606Z,3.78
2023-09-19T10:13:24.717Z,6.53
2023-09-19T10:15:55.236Z,4.38
2023-09-19T10:18:26.747Z,4.07
2023-09-19T10:20:53.979Z,4.43
2023-09-19T10:23:25.055Z,5.85
2023-09-19T10:25:53.777Z,2.63
2023-09-19T10:28:23.845Z,3.20
2023-09-19T10:30:52.828Z,6.20
2023-09-19T10:33:27.514Z,4.30
2023-09-19T10:35:57.905Z,5.13
2023-09-19T10:38:26.459Z,3.38
2023-09-19T10:41:02.330Z,4.05
2023-09-19T10:43:36.517Z,5.15
2023-09-19T10:46:09.185Z,3.05
2023-09-19T10:48:37.366Z,3.20
2023-09-19T10:51:11.907Z,3.42
2023-09-19T10:54:08.057Z,4.28
2023-09-19T10:56:43.001Z,7.07
2023-09-19T10:59:15.044Z,4.75
2023-09-19T11:01:53.231Z,5.75
2023-09-19T11:04:31.653Z,5.97
2023-09-19T11:07:16.403Z,4.18
2023-09-19T11:09:59.156Z,5.95
2023-09-19T11:12:47.201Z,6.65
2023-09-19T11:15:53.466Z,7.68
2023-09-19T11:18:57.319Z,3.65
2023-09-19T11:21:40.321Z,3.50
2023-09-19T11:24:39.088Z,7.32
2023-09-19T11:27:19.365Z,5.43
2023-09-19T11:29:46.476Z,3.70
2023-09-19T11:32:13.843Z,5.05
2023-09-19T11:34:47.546Z,5.38
2023-09-19T11:37:41.269Z,5.75
2023-09-19T11:40:17.795Z,7.10
2023-09-19T11:42:46.681Z,6.03
2023-09-19T11:45:47.656Z,6.55
2023-09-19T11:48:16.697Z,5.25
2023-09-19T11:50:45.684Z,3.67
2023-09-19T11:53:18.557Z,4.97
2023-09-19T11:55:46.680Z,5.28
2023-09-19T11:58:18.227Z,6.63
2023-09-19T12:00:46.640Z,3.95
2023-09-19T12:03:15.870Z,5.70
2023-09-19T12:05:42.952Z,8.45
2023-09-19T12:08:10.228Z,5.05
2023-09-19T12:10:50.778Z,3.80
2023-09-19T12:13:19.530Z,4.35
2023-09-19T12:15:49.464Z,6.68
2023-09-19T12:18:29.793Z,4.35
2023-09-19T12:20:57.215Z,6.20
2023-09-19T12:23:25.390Z,5.35
2023-09-19T12:25:55.059Z,5.28
2023-09-19T12:28:25.403Z,6.53
2023-09-19T12:30:56.732Z,4.53
2023-09-19T12:33:28.432Z,5.22
2023-09-19T12:35:55.463Z,5.70
2023-09-19T12:38:29.805Z,3.58
2023-09-19T12:41:01.695Z,4.82
2023-09-19T12:43:34.608Z,4.90
2023-09-19T12:46:02.207Z,5.43
2023-09-19T12:48:35.979Z,5.40
2023-09-19T12:51:08.901Z,6.13
2023-09-19T12:53:50.251Z,8.32
2023-09-19T12:56:19.578Z,8.45
2023-09-19T12:58:57.209Z,6.85
2023-09-19T13:01:29.523Z,6.80
2023-09-19T13:04:27.548Z,4.80
2023-09-19T13:06:56.194Z,7.38
2023-09-19T13:09:29.899Z,6.20
2023-09-19T13:11:56.795Z,4.25
2023-09-19T13:14:41.657Z,5.57
2023-09-19T13:17:20.548Z,7.50
2023-09-19T13:19:56.654Z,3.60
2023-09-19T13:22:44.417Z,4.60
2023-09-19T13:25:19.886Z,4.13
2023-09-19T13:27:49.855Z,4.05
2023-09-19T13:30:16.953Z,6.60
2023-09-19T13:32:45.208Z,5.28
2023-09-19T13:35:13.687Z,5.22
2023-09-19T13:37:44.530Z,4.28
2023-09-19T13:40:15.589Z,3.55
2023-09-19T13:42:43.323Z,5.25
2023-09-19T13:45:14.013Z,5.10
2023-09-19T13:47:42.283Z,3.88
2023-09-19T13:50:10.300Z,5.57
2023-09-19T13:52:37.392Z,6.40
2023-09-19T13:55:05.073Z,7.32
2023-09-19T13:57:31.838Z,4.35
2023-09-19T13:59:58.972Z,6.00
2023-09-19T14:02:26.463Z,6.85
2023-09-19T14:04:54.055Z,4.68
2023-09-19T14:07:21.582Z,5.03
2023-09-19T14:09:49.127Z,3.47
2023-09-19T14:12:16.945Z,6.22
2023-09-19T14:14:44.240Z,6.40
2023-09-19T14:17:11.400Z,5.40
2023-09-19T14:19:39.444Z,8.07
2023-09-19T14:22:09.564Z,6.20
2023-09-19T14:24:37.274Z,7.28
2023-09-19T14:27:05.417Z,6.40
2023-09-19T14:29:33.471Z,5.07
2023-09-19T14:32:00.824Z,9.10
2023-09-19T14:34:27.917Z,7.15
2023-09-19T14:36:56.196Z,6.25
2023-09-19T14:39:23.121Z,6.53
2023-09-19T14:41:50.576Z,7.45
2023-09-19T14:44:17.818Z,8.52
2023-09-19T14:46:47.684Z,5.43
2023-09-19T14:49:18.157Z,5.32
2023-09-19T14:51:49.417Z,8.73
2023-09-19T14:54:19.188Z,6.90
2023-09-19T14:56:46.628Z,6.18
2023-09-19T14:59:14.389Z,3.78
2023-09-19T15:01:42.545Z,4.78
2023-09-19T15:04:10.300Z,6.47
2023-09-19T15:06:37.330Z,6.20
2023-09-19T15:09:06.470Z,10.00
2023-09-19T15:11:33.487Z,7.10
2023-09-19T15:14:01.088Z,4.85
2023-09-19T15:16:28.732Z,6.25
2023-09-19T15:18:56.758Z,5.65
2023-09-19T15:21:25.031Z,6.65
2023-09-19T15:23:51.945Z,7.88
2023-09-19T15:26:22.144Z,8.60
2023-09-19T15:28:49.803Z,7.70
2023-09-19T15:31:17.110Z,6.72
2023-09-19T15:33:44.042Z,6.75
2023-09-19T15:36:12.348Z,5.20
2023-09-19T15:39:02.233Z,6.55
2023-09-19T15:41:34.181Z,5.57
2023-09-19T15:44:05.132Z,6.95
2023-09-19T15:46:37.016Z,8.95
2023-09-19T15:49:04.783Z,7.88
2023-09-19T15:51:31.921Z,7.28
2023-09-19T15:54:01.417Z,8.98
2023-09-19T15:56:28.531Z,6.45
2023-09-19T15:58:56.267Z,8.05
2023-09-19T16:01:24.330Z,6.50
2023-09-19T16:03:57.433Z,7.60
2023-09-19T16:06:27.209Z,6.40
2023-09-19T16:08:57.519Z,4.85
2023-09-19T16:11:25.891Z,8.30
2023-09-19T16:13:54.214Z,5.50
2023-09-19T16:16:24.703Z,5.93
2023-09-19T16:18:59.106Z,4.53
2023-09-19T16:21:28.151Z,6.35
2023-09-19T16:23:56.999Z,6.45
2023-09-19T16:26:25.356Z,5.65
2023-09-19T16:28:54.485Z,6.50
2023-09-19T16:31:21.801Z,5.85
2023-09-19T16:33:49.157Z,8.23
2023-09-19T16:36:20.744Z,5.70
2023-09-19T16:38:51.746Z,5.45
2023-09-19T16:41:20.583Z,6.15
2023-09-19T16:43:48.832Z,4.60
2023-09-19T16:46:22.511Z,3.92
2023-09-19T16:51:22.807Z,6.28
2023-09-19T16:53:51.070Z,8.55
2023-09-19T16:56:20.261Z,4.32
2023-09-19T16:58:49.198Z,5.18
2023-09-19T17:01:18.016Z,5.25
2023-09-19T17:03:45.582Z,3.65
2023-09-19T17:06:16.377Z,8.20
2023-09-19T17:08:47.289Z,3.97
2023-09-19T17:11:18.905Z,6.35
2023-09-19T17:13:48.588Z,3.45
2023-09-19T17:16:20.156Z,4.93
2023-09-19T17:18:49.040Z,4.70
2023-09-19T17:21:16.893Z,5.78
2023-09-19T17:23:43.839Z,7.20
2023-09-19T17:26:12.588Z,4.25
2023-09-19T17:28:40.637Z,6.43
2023-09-19T17:31:16.533Z,4.68
2023-09-19T17:33:44.583Z,10.95
2023-09-19T17:36:15.239Z,4.85
2023-09-19T17:38:43.344Z,5.93
2023-09-19T17:41:10.564Z,6.03
2023-09-19T17:43:39.652Z,9.43
2023-09-19T17:46:18.044Z,6.07
2023-09-19T17:48:47.413Z,5.95
2023-09-19T17:51:15.790Z,6.75
2023-09-19T17:53:43.162Z,6.80
2023-09-19T17:56:11.714Z,7.55
2023-09-19T17:58:39.690Z,4.10
2023-09-19T18:01:18.752Z,6.25
2023-09-19T18:03:45.844Z,6.68
2023-09-19T18:06:15.386Z,6.78
2023-09-19T18:08:43.349Z,7.25
2023-09-19T18:11:15.829Z,6.07
2023-09-19T18:13:49.716Z,5.68
2023-09-19T18:16:18.490Z,4.47
2023-09-19T18:18:51.282Z,5.80
2023-09-19T18:21:21.281Z,10.57
2023-09-19T18:24:02.631Z,4.95
2023-09-19T18:26:30.022Z,6.88
2023-09-19T18:28:57.053Z,8.23
2023-09-19T18:31:24.561Z,10.30
2023-09-19T18:33:53.465Z,9.02
2023-09-19T18:36:20.945Z,8.85
2023-09-19T18:38:49.952Z,11.52
2023-09-19T18:41:17.678Z,13.68
2023-09-19T18:43:45.130Z,17.20
2023-09-19T18:46:15.289Z,26.75
2023-09-19T18:48:46.612Z,28.55
2023-09-19T18:51:15.699Z,24.42
2023-09-19T18:53:47.262Z,24.08
2023-09-19T18:56:20.903Z,9.85
2023-09-19T18:58:51.410Z,10.05
2023-09-19T19:01:18.808Z,9.10
2023-09-19T19:03:47.240Z,8.57
2023-09-19T19:06:18.810Z,8.60
2023-09-19T19:08:47.449Z,8.43
2023-09-19T19:11:18.268Z,10.70
2023-09-19T19:13:48.447Z,9.20
2023-09-19T19:16:17.595Z,8.70
2023-09-19T19:18:46.174Z,9.88
2023-09-19T19:21:14.572Z,10.00
2023-09-19T19:23:41.805Z,7.63
2023-09-19T19:26:10.884Z,8.02
2023-09-19T19:28:41.277Z,7.95
2023-09-19T19:31:11.502Z,9.43
2023-09-19T19:33:39.953Z,7.78
2023-09-19T19:36:09.116Z,10.27
2023-09-19T19:38:38.637Z,6.88
2023-09-19T19:41:06.534Z,6.57
2023-09-19T19:43:34.080Z,6.75
2023-09-19T19:46:04.730Z,5.60
2023-09-19T19:48:32.020Z,5.32
2023-09-19T19:51:00.387Z,6.35
2023-09-19T19:53:27.625Z,7.75
2023-09-19T19:55:54.888Z,5.75
2023-09-19T19:58:22.723Z,4.97
2023-09-19T20:00:51.176Z,6.95
2023-09-19T20:03:19.075Z,3.65
2023-09-19T20:05:49.636Z,3.47
2023-09-19T20:08:16.940Z,4.50
2023-09-19T20:10:45.036Z,3.17
2023-09-19T20:13:16.848Z,4.72
2023-09-19T20:15:44.662Z,3.72
2023-09-19T20:18:14.609Z,4.53
2023-09-19T20:20:41.992Z,3.97
2023-09-19T20:23:11.719Z,5.90
2023-09-19T20:25:46.879Z,4.78
2023-09-19T20:28:18.240Z,5.80
2023-09-19T20:30:49.341Z,6.82
2023-09-19T20:33:19.442Z,5.60
2023-09-19T20:35:47.068Z,4.57
2023-09-19T20:38:17.121Z,5.65
2023-09-19T20:40:47.667Z,6.28
2023-09-19T20:43:15.759Z,5.70
2023-09-19T20:45:43.484Z,4.00
2023-09-19T20:48:12.352Z,3.92
2023-09-19T20:50:40.532Z,4.20
2023-09-19T20:53:07.900Z,4.45
2023-09-19T20:55:38.416Z,4.45
2023-09-19T20:58:09.097Z,3.90
2023-09-19T21:00:36.468Z,5.00
2023-09-19T21:03:03.754Z,5.30
2023-09-19T21:05:31.420Z,5.93
2023-09-19T21:07:59.468Z,5.45
2023-09-19T21:10:26.715Z,4.45
2023-09-19T21:12:53.865Z,6.18
2023-09-19T21:15:25.214Z,8.95
2023-09-19T21:17:52.608Z,4.68
2023-09-19T21:20:23.995Z,7.85
2023-09-19T21:22:51.456Z,4.93
2023-09-19T21:25:18.639Z,4.18
2023-09-19T21:27:51.098Z,3.58
2023-09-19T21:30:21.874Z,5.40
2023-09-19T21:32:49.182Z,3.60
2023-09-19T21:35:19.671Z,4.57
2023-09-19T21:37:46.805Z,6.82
2023-09-19T21:40:14.070Z,5.28
2023-09-19T21:42:41.106Z,4.55
2023-09-19T21:45:08.995Z,4.80
2023-09-19T21:47:36.465Z,4.38
2023-09-19T21:50:08.229Z,2.47
2023-09-19T21:52:35.828Z,7.07
2023-09-19T21:55:05.109Z,5.25
2023-09-19T21:57:32.480Z,7.82
2023-09-19T22:00:03.504Z,5.03
2023-09-19T22:02:34.474Z,3.58
2023-09-19T22:05:02.787Z,3.25
2023-09-19T22:07:32.760Z,5.60
2023-09-19T22:10:03.946Z,3.85
2023-09-19T22:12:31.961Z,6.20
2023-09-19T22:14:59.429Z,4.95
2023-09-19T22:17:26.967Z,5.43
2023-09-19T22:19:55.499Z,5.95
2023-09-19T22:22:22.715Z,5.45
2023-09-19T22:24:49.998Z,3.20
2023-09-19T22:27:17.460Z,5.13
2023-09-19T22:29:46.371Z,5.93
2023-09-19T22:32:13.735Z,5.35
2023-09-19T22:34:43.788Z,5.80
2023-09-19T22:37:12.588Z,6.10
2023-09-19T22:39:39.958Z,4.93
2023-09-19T22:42:12.916Z,9.10
2023-09-19T22:44:41.911Z,7.88
2023-09-19T22:47:09.626Z,6.22
2023-09-19T22:49:40.024Z,4.20
2023-09-19T22:52:09.685Z,7.63
2023-09-19T22:54:38.265Z,4.95
2023-09-19T22:57:07.582Z,5.63
2023-09-19T22:59:36.873Z,6.47
2023-09-19T23:02:06.916Z,3.25
2023-09-19T23:04:35.884Z,3.47
2023-09-19T23:07:07.035Z,5.10
2023-09-19T23:09:36.255Z,4.85
2023-09-19T23:12:08.906Z,4.55
2023-09-19T23:14:43.063Z,5.30
2023-09-19T23:17:23.109Z,5.90
2023-09-19T23:19:50.678Z,6.85
2023-09-19T23:22:30.144Z,5.82
2023-09-19T23:25:14.164Z,6.35
2023-09-19T23:27:46.249Z,3.97
2023-09-19T23:30:14.151Z,3.60
2023-09-19T23:32:41.179Z,6.18
2023-09-19T23:35:09.730Z,3.67
2023-09-19T23:37:37.177Z,4.75
2023-09-19T23:40:07.252Z,6.10
2023-09-19T23:42:35.493Z,5.53
2023-09-19T23:45:03.710Z,5.50
2023-09-19T23:47:32.081Z,5.68
2023-09-19T23:49:59.393Z,3.63
2023-09-19T23:52:26.544Z,4.47
2023-09-19T23:54:57.613Z,6.40
2023-09-19T23:57:24.795Z,5.93
2023-09-19T23:59:52.358Z,5.30
